Hensonville, New York
Current Conditions -  °F | °C
As of 7:51 AM on Monday 22 Dec 2014 (Local Time) from KALB Reporting Station
Light Snow Light Snow  
Wind Chill: 29°   Ceiling: 1900
Heat Index: 29°   Visibility: 8mi
Dew Point: 24°   Wind: 3mph
Humidity: 82%   Direction: 10°N
Pressure: 30.36"   Gusts: NA
Location:  42.29°N, 74.22°W
Report Text: KALB 221251Z 01003KT 8SM -SN FEW012 OVC019 M02/M04 A3036 RMK AO2 SNE08B25 SLP283 PCPN VRY LGT AND INTMT P0000 T10171044
Loading
Personal Weather Stations






























Interactive Weather Map New forecast layout! Learn more

10-Day Weather Forecast

Advertisements
Track Severe Weather on mobile